Time,TemperatureF,DewpointF,PressureIn,WindDirection,WindDirectionDegrees,WindSpeedMPH,WindSpeedGustMPH,Humidity,HourlyPrecipIn,Conditions,Clouds,dailyrainin,SoftwareType,DateUTC
2013-05-20 00:01:00,51.3,48.1,29.74,ENE,68,0.0,0.0,89,0.04,,---,0.00,VWS V14.01,2013-05-20 04:01:00,
2013-05-20 00:03:00,51.3,48.1,29.74,ENE,68,0.0,1.6,89,0.04,,---,0.00,VWS V14.01,2013-05-20 04:03:00,
2013-05-20 00:04:00,51.1,48.0,29.74,ENE,68,0.0,0.0,89,0.04,,---,0.00,VWS V14.01,2013-05-20 04:04:00,
2013-05-20 00:05:00,51.1,48.0,29.74,ENE,68,0.0,0.0,89,0.04,,---,0.00,VWS V14.01,2013-05-20 04:05:00,
2013-05-20 00:07:00,51.1,48.0,29.74,ENE,68,0.0,0.0,89,0.04,,---,0.00,VWS V14.01,2013-05-20 04:07:00,
2013-05-20 00:12:00,51.1,48.0,29.74,ENE,68,2.9,2.9,89,0.04,,---,0.00,VWS V14.01,2013-05-20 04:12:00,
2013-05-20 00:17:00,51.1,48.0,29.74,ENE,68,2.0,2.0,89,0.04,,---,0.00,VWS V14.01,2013-05-20 04:17:00,
2013-05-20 00:22:00,51.1,48.0,29.74,NNE,22,0.0,1.1,89,0.04,,---,0.00,VWS V14.01,2013-05-20 04:22:00,
2013-05-20 00:27:00,50.9,47.8,29.74,ENE,68,1.6,3.1,89,0.04,,---,0.00,VWS V14.01,2013-05-20 04:27:00,
2013-05-20 00:32:00,50.9,47.8,29.74,ENE,68,1.3,2.5,89,0.04,,---,0.00,VWS V14.01,2013-05-20 04:32:00,
2013-05-20 00:38:00,50.9,48.1,29.71,SSW,202,2.0,2.9,90,0.04,,---,0.00,VWS V14.01,2013-05-20 04:38:00,
2013-05-20 00:43:00,50.9,48.1,29.71,NNE,22,0.0,1.1,90,0.04,,---,0.00,VWS V14.01,2013-05-20 04:43:00,
2013-05-20 00:48:00,50.9,48.1,29.71,NNE,22,0.0,0.0,90,0.00,,---,0.00,VWS V14.01,2013-05-20 04:48:00,
2013-05-20 00:53:00,50.9,48.1,29.71,NE,45,2.7,3.1,90,0.00,,---,0.00,VWS V14.01,2013-05-20 04:53:00,
2013-05-20 00:58:00,50.7,47.9,29.71,NE,45,1.6,2.5,90,0.00,,---,0.00,VWS V14.01,2013-05-20 04:58:00,
2013-05-20 01:04:00,50.7,47.9,29.71,NE,45,0.0,1.6,90,0.00,,---,0.00,VWS V14.01,2013-05-20 05:04:00,
2013-05-20 01:09:00,50.7,47.9,29.71,NNE,22,0.0,0.0,90,0.00,,---,0.00,VWS V14.01,2013-05-20 05:09:00,
2013-05-20 01:15:00,50.7,48.2,29.71,ENE,68,0.0,0.0,91,0.00,,---,0.00,VWS V14.01,2013-05-20 05:15:00,
2013-05-20 01:20:00,50.7,48.2,29.71,ENE,68,1.6,1.6,91,0.00,,---,0.00,VWS V14.01,2013-05-20 05:20:00,
2013-05-20 01:25:00,50.5,48.0,29.68,ENE,68,1.3,1.3,91,0.00,,---,0.00,VWS V14.01,2013-05-20 05:25:00,
2013-05-20 01:31:00,50.7,48.2,29.68,ENE,68,0.0,0.9,91,0.00,,---,0.00,VWS V14.01,2013-05-20 05:31:00,
2013-05-20 01:36:00,50.7,48.2,29.68,ENE,68,0.0,0.0,91,0.00,,---,0.00,VWS V14.01,2013-05-20 05:36:00,
2013-05-20 01:41:00,50.7,48.2,29.68,ENE,68,0.0,0.0,91,0.00,,---,0.00,VWS V14.01,2013-05-20 05:41:00,
2013-05-20 01:46:00,50.7,48.2,29.68,ENE,68,0.0,0.0,91,0.00,,---,0.00,VWS V14.01,2013-05-20 05:46:00,
2013-05-20 01:51:00,50.7,48.5,29.68,ENE,68,0.0,0.0,92,0.00,,---,0.00,VWS V14.01,2013-05-20 05:51:00,
2013-05-20 01:57:00,50.7,48.5,29.68,NE,45,0.0,0.0,92,0.00,,---,0.00,VWS V14.01,2013-05-20 05:57:00,
2013-05-20 02:02:00,50.7,48.5,29.68,NE,45,0.0,0.0,92,0.00,,---,0.00,VWS V14.01,2013-05-20 06:02:00,
2013-05-20 02:07:00,50.7,48.5,29.68,NE,45,0.0,0.0,92,0.04,,---,0.04,VWS V14.01,2013-05-20 06:07:00,
2013-05-20 02:12:00,50.7,48.5,29.68,NE,45,0.9,0.9,92,0.04,,---,0.04,VWS V14.01,2013-05-20 06:12:00,
2013-05-20 02:18:00,50.7,48.5,29.68,NE,45,0.0,0.0,92,0.04,,---,0.04,VWS V14.01,2013-05-20 06:18:00,
2013-05-20 02:24:00,50.7,48.5,29.65,NNE,22,1.3,2.5,92,0.04,,---,0.04,VWS V14.01,2013-05-20 06:24:00,
2013-05-20 02:30:00,50.7,48.5,29.65,NNE,22,0.0,0.0,92,0.08,,---,0.08,VWS V14.01,2013-05-20 06:30:00,
2013-05-20 02:35:00,50.7,48.5,29.65,NNE,22,0.0,0.0,92,0.08,,---,0.08,VWS V14.01,2013-05-20 06:35:00,
2013-05-20 02:41:00,50.7,48.5,29.68,NNE,22,0.0,0.0,92,0.08,,---,0.08,VWS V14.01,2013-05-20 06:41:00,
2013-05-20 02:46:00,50.7,48.8,29.68,NNE,22,0.0,0.0,93,0.08,,---,0.08,VWS V14.01,2013-05-20 06:46:00,
2013-05-20 02:51:00,50.9,49.0,29.68,NNE,22,0.0,0.0,93,0.08,,---,0.08,VWS V14.01,2013-05-20 06:51:00,
2013-05-20 02:56:00,50.9,49.0,29.65,NNE,22,0.0,1.6,93,0.08,,---,0.08,VWS V14.01,2013-05-20 06:56:00,
2013-05-20 03:01:00,50.9,49.0,29.65,NNE,22,1.6,2.2,93,0.08,,---,0.08,VWS V14.01,2013-05-20 07:01:00,
2013-05-20 03:06:00,50.9,49.0,29.65,NNE,22,0.0,0.0,93,0.08,,---,0.08,VWS V14.01,2013-05-20 07:06:00,
2013-05-20 03:12:00,50.9,49.0,29.65,NNE,22,1.6,1.6,93,0.04,,---,0.08,VWS V14.01,2013-05-20 07:12:00,
2013-05-20 03:17:00,50.9,49.0,29.65,NNE,22,1.1,2.5,93,0.04,,---,0.08,VWS V14.01,2013-05-20 07:17:00,
2013-05-20 03:23:00,50.9,49.0,29.62,NNE,22,0.0,0.0,93,0.04,,---,0.08,VWS V14.01,2013-05-20 07:23:00,
2013-05-20 03:28:00,51.1,49.1,29.62,East,90,2.0,3.1,93,0.00,,---,0.08,VWS V14.01,2013-05-20 07:28:00,
2013-05-20 03:33:00,51.1,49.1,29.62,East,90,2.9,2.9,93,0.00,,---,0.08,VWS V14.01,2013-05-20 07:33:00,
2013-05-20 03:38:00,51.1,49.1,29.62,ENE,68,0.0,0.0,93,0.04,,---,0.12,VWS V14.01,2013-05-20 07:38:00,
2013-05-20 03:44:00,51.1,49.1,29.62,ENE,68,0.0,0.0,93,0.04,,---,0.12,VWS V14.01,2013-05-20 07:44:00,
2013-05-20 03:49:00,51.1,49.4,29.62,ENE,68,0.0,0.0,94,0.04,,---,0.12,VWS V14.01,2013-05-20 07:49:00,
2013-05-20 03:54:00,51.1,49.4,29.62,ENE,68,0.0,0.0,94,0.04,,---,0.12,VWS V14.01,2013-05-20 07:54:00,
2013-05-20 03:59:00,51.3,49.6,29.62,ENE,68,0.0,0.0,94,0.04,,---,0.12,VWS V14.01,2013-05-20 07:59:00,
2013-05-20 04:04:00,51.3,49.6,29.62,NE,45,0.0,0.0,94,0.04,,---,0.12,VWS V14.01,2013-05-20 08:04:00,
2013-05-20 04:09:00,51.3,49.6,29.62,NE,45,0.0,0.0,94,0.04,,---,0.12,VWS V14.01,2013-05-20 08:09:00,
2013-05-20 04:15:00,51.3,49.6,29.62,NE,45,2.5,2.7,94,0.04,,---,0.12,VWS V14.01,2013-05-20 08:15:00,
2013-05-20 04:20:00,51.3,49.6,29.62,NE,45,0.0,0.0,94,0.04,,---,0.12,VWS V14.01,2013-05-20 08:20:00,
2013-05-20 04:26:00,51.3,49.6,29.59,NE,45,0.9,1.3,94,0.04,,---,0.12,VWS V14.01,2013-05-20 08:26:00,
2013-05-20 04:31:00,51.4,49.8,29.59,NE,45,0.0,0.0,94,0.04,,---,0.12,VWS V14.01,2013-05-20 08:31:00,
2013-05-20 04:36:00,51.4,49.8,29.59,NE,45,1.3,1.3,94,0.04,,---,0.12,VWS V14.01,2013-05-20 08:36:00,
2013-05-20 04:41:00,51.4,49.8,29.59,NE,45,0.0,0.0,94,0.00,,---,0.12,VWS V14.01,2013-05-20 08:41:00,
2013-05-20 04:47:00,51.4,49.8,29.59,NE,45,1.1,1.6,94,0.00,,---,0.12,VWS V14.01,2013-05-20 08:47:00,
2013-05-20 04:52:00,51.4,49.8,29.59,NE,45,0.0,0.0,94,0.00,,---,0.12,VWS V14.01,2013-05-20 08:52:00,
2013-05-20 04:57:00,51.4,49.8,29.59,NE,45,0.0,0.0,94,0.00,,---,0.12,VWS V14.01,2013-05-20 08:57:00,
2013-05-20 05:02:00,51.6,50.2,29.59,East,90,1.1,1.3,95,0.00,,---,0.12,VWS V14.01,2013-05-20 09:02:00,
2013-05-20 05:07:00,51.6,50.2,29.59,East,90,0.0,1.1,95,0.00,,---,0.12,VWS V14.01,2013-05-20 09:07:00,
2013-05-20 05:12:00,51.6,50.2,29.59,East,90,1.3,1.3,95,0.00,,---,0.12,VWS V14.01,2013-05-20 09:12:00,
2013-05-20 05:17:00,51.6,50.2,29.59,NNW,338,0.0,1.6,95,0.00,,---,0.12,VWS V14.01,2013-05-20 09:17:00,
2013-05-20 05:22:00,51.6,50.2,29.59,NNW,338,0.0,0.0,95,0.00,,---,0.12,VWS V14.01,2013-05-20 09:22:00,
2013-05-20 05:28:00,51.6,50.2,29.59,NNW,338,0.0,0.0,95,0.00,,---,0.12,VWS V14.01,2013-05-20 09:28:00,
2013-05-20 05:33:00,51.6,50.2,29.59,NNW,338,0.0,0.0,95,0.00,,---,0.12,VWS V14.01,2013-05-20 09:33:00,
2013-05-20 05:38:00,51.6,50.2,29.59,NNW,338,0.0,0.0,95,0.00,,---,0.12,VWS V14.01,2013-05-20 09:38:00,
2013-05-20 05:44:00,51.6,50.2,29.59,NNW,338,0.0,0.0,95,0.00,,---,0.12,VWS V14.01,2013-05-20 09:44:00,
2013-05-20 05:49:00,51.6,50.2,29.59,NNW,338,0.0,0.0,95,0.00,,---,0.12,VWS V14.01,2013-05-20 09:49:00,
2013-05-20 05:54:00,51.6,50.2,29.59,NNW,338,0.0,0.0,95,0.00,,---,0.12,VWS V14.01,2013-05-20 09:54:00,
2013-05-20 06:00:00,51.8,50.4,29.59,NNW,338,0.0,0.0,95,0.00,,---,0.12,VWS V14.01,2013-05-20 10:00:00,
2013-05-20 06:05:00,51.8,50.4,29.59,NNW,338,0.0,0.0,95,0.00,,---,0.12,VWS V14.01,2013-05-20 10:05:00,
2013-05-20 06:11:00,51.8,50.4,29.59,NNW,338,0.0,0.0,95,0.00,,---,0.12,VWS V14.01,2013-05-20 10:11:00,
2013-05-20 06:16:00,51.8,50.4,29.59,NNW,338,0.0,0.0,95,0.00,,---,0.12,VWS V14.01,2013-05-20 10:16:00,
2013-05-20 06:22:00,51.8,50.4,29.59,NNW,338,0.0,0.0,95,0.00,,---,0.12,VWS V14.01,2013-05-20 10:22:00,
2013-05-20 06:28:00,51.8,50.4,29.56,NNW,338,0.0,0.0,95,0.00,,---,0.12,VWS V14.01,2013-05-20 10:28:00,
2013-05-20 06:33:00,51.8,50.4,29.56,NNW,338,0.0,0.0,95,0.00,,---,0.12,VWS V14.01,2013-05-20 10:33:00,
2013-05-20 06:38:00,51.8,50.4,29.56,NNW,338,0.0,0.0,95,0.00,,---,0.12,VWS V14.01,2013-05-20 10:38:00,
2013-05-20 06:44:00,51.8,50.4,29.56,NNW,338,0.0,0.0,95,0.00,,---,0.12,VWS V14.01,2013-05-20 10:44:00,
2013-05-20 06:50:00,51.8,50.4,29.56,NNW,338,0.0,0.0,95,0.00,,---,0.12,VWS V14.01,2013-05-20 10:50:00,
2013-05-20 06:56:00,51.8,50.4,29.56,NNW,338,0.0,0.0,95,0.00,,---,0.12,VWS V14.01,2013-05-20 10:56:00,
2013-05-20 07:02:00,51.8,50.4,29.56,NNW,338,0.0,0.0,95,0.00,,---,0.12,VWS V14.01,2013-05-20 11:02:00,
2013-05-20 07:07:00,51.8,50.4,29.56,NNW,338,0.0,0.0,95,0.04,,---,0.16,VWS V14.01,2013-05-20 11:07:00,
2013-05-20 07:12:00,51.8,50.4,29.56,NNW,338,0.0,0.0,95,0.04,,---,0.16,VWS V14.01,2013-05-20 11:12:00,
2013-05-20 07:17:00,51.8,50.4,29.56,NNW,338,0.0,0.0,95,0.04,,---,0.16,VWS V14.01,2013-05-20 11:17:00,
2013-05-20 07:22:00,51.8,50.4,29.56,NNW,338,0.0,0.0,95,0.04,,---,0.16,VWS V14.01,2013-05-20 11:22:00,
2013-05-20 07:28:00,52.0,50.6,29.56,NNW,338,0.0,0.0,95,0.04,,---,0.16,VWS V14.01,2013-05-20 11:28:00,
2013-05-20 07:33:00,52.2,50.8,29.56,NNW,338,0.0,0.0,95,0.04,,---,0.16,VWS V14.01,2013-05-20 11:33:00,
2013-05-20 07:38:00,52.2,50.8,29.56,NNW,338,0.0,0.0,95,0.04,,---,0.16,VWS V14.01,2013-05-20 11:38:00,
2013-05-20 07:43:00,52.3,51.0,29.56,West,270,0.0,0.0,95,0.04,,---,0.16,VWS V14.01,2013-05-20 11:43:00,
2013-05-20 07:48:00,52.3,51.0,29.56,SW,225,0.0,0.0,95,0.04,,---,0.16,VWS V14.01,2013-05-20 11:48:00,
2013-05-20 07:53:00,52.5,51.1,29.56,SW,225,0.0,0.0,95,0.04,,---,0.16,VWS V14.01,2013-05-20 11:53:00,
2013-05-20 07:59:00,52.5,51.1,29.56,SW,225,0.0,0.0,95,0.04,,---,0.16,VWS V14.01,2013-05-20 11:59:00,
2013-05-20 08:04:00,52.5,51.1,29.56,SW,225,0.0,0.0,95,0.04,,---,0.16,VWS V14.01,2013-05-20 12:04:00,
2013-05-20 08:09:00,52.5,51.1,29.56,SW,225,0.0,0.0,95,0.00,,---,0.16,VWS V14.01,2013-05-20 12:09:00,
2013-05-20 08:14:00,52.7,51.3,29.56,SW,225,0.0,0.0,95,0.00,,---,0.16,VWS V14.01,2013-05-20 12:14:00,
2013-05-20 08:20:00,52.7,51.3,29.56,SW,225,1.1,1.6,95,0.00,,---,0.16,VWS V14.01,2013-05-20 12:20:00,
2013-05-20 08:25:00,52.7,51.3,29.56,SW,225,0.0,0.0,95,0.00,,---,0.16,VWS V14.01,2013-05-20 12:25:00,
2013-05-20 08:30:00,52.9,51.5,29.56,SW,225,1.3,1.3,95,0.00,,---,0.16,VWS V14.01,2013-05-20 12:30:00,
2013-05-20 08:35:00,53.1,51.7,29.56,SW,225,0.0,0.0,95,0.00,,---,0.16,VWS V14.01,2013-05-20 12:35:00,
2013-05-20 08:41:00,53.2,51.8,29.56,SW,225,2.5,2.9,95,0.00,,---,0.16,VWS V14.01,2013-05-20 12:41:00,
2013-05-20 08:46:00,53.6,52.2,29.56,SW,225,1.6,2.0,95,0.00,,---,0.16,VWS V14.01,2013-05-20 12:46:00,
2013-05-20 08:51:00,54.0,52.3,29.56,SW,225,0.0,0.0,94,0.00,,---,0.16,VWS V14.01,2013-05-20 12:51:00,
2013-05-20 08:57:00,55.2,53.8,29.56,NNW,338,1.3,2.0,95,0.00,,---,0.16,VWS V14.01,2013-05-20 12:57:00,
2013-05-20 09:02:00,55.8,54.3,29.56,SSW,202,0.0,2.2,95,0.00,,---,0.16,VWS V14.01,2013-05-20 13:02:00,
2013-05-20 09:07:00,55.9,54.0,29.56,SW,225,2.7,2.7,93,0.04,,---,0.20,VWS V14.01,2013-05-20 13:07:00,
2013-05-20 09:13:00,56.1,53.8,29.56,SW,225,1.1,1.3,92,0.04,,---,0.20,VWS V14.01,2013-05-20 13:13:00,
2013-05-20 09:18:00,56.7,54.4,29.56,SSW,202,2.5,2.5,92,0.04,,---,0.20,VWS V14.01,2013-05-20 13:18:00,
2013-05-20 09:23:00,56.8,54.2,29.56,South,180,0.0,0.0,91,0.04,,---,0.20,VWS V14.01,2013-05-20 13:23:00,
2013-05-20 09:28:00,56.7,54.1,29.56,South,180,0.0,0.0,91,0.04,,---,0.20,VWS V14.01,2013-05-20 13:28:00,
2013-05-20 09:33:00,56.7,53.8,29.56,South,180,0.0,0.0,90,0.04,,---,0.20,VWS V14.01,2013-05-20 13:33:00,
2013-05-20 09:38:00,56.3,53.1,29.56,SE,135,0.0,0.0,89,0.04,,---,0.20,VWS V14.01,2013-05-20 13:38:00,
2013-05-20 09:43:00,56.1,52.9,29.56,SE,135,1.1,1.6,89,0.04,,---,0.20,VWS V14.01,2013-05-20 13:43:00,
2013-05-20 09:48:00,55.9,52.8,29.56,NNW,338,2.7,2.7,89,0.04,,---,0.20,VWS V14.01,2013-05-20 13:48:00,
2013-05-20 09:54:00,55.6,52.4,29.53,NW,315,0.0,0.0,89,0.04,,---,0.20,VWS V14.01,2013-05-20 13:54:00,
2013-05-20 09:59:00,55.4,52.2,29.53,NNE,22,0.0,0.0,89,0.04,,---,0.20,VWS V14.01,2013-05-20 13:59:00,
2013-05-20 10:05:00,55.0,52.2,29.53,WNW,292,0.0,0.0,90,0.09,,---,0.25,VWS V14.01,2013-05-20 14:05:00,
2013-05-20 10:10:00,55.0,52.5,29.56,WNW,292,0.0,0.0,91,0.05,,---,0.25,VWS V14.01,2013-05-20 14:10:00,
2013-05-20 10:15:00,54.9,52.3,29.56,WNW,292,0.0,0.0,91,0.05,,---,0.25,VWS V14.01,2013-05-20 14:15:00,
2013-05-20 10:21:00,54.7,52.1,29.56,WNW,292,0.0,0.0,91,0.05,,---,0.25,VWS V14.01,2013-05-20 14:21:00,
2013-05-20 10:26:00,54.7,52.4,29.53,WNW,292,0.0,0.0,92,0.05,,---,0.25,VWS V14.01,2013-05-20 14:26:00,
2013-05-20 10:31:00,54.7,52.4,29.53,WNW,292,0.0,0.0,92,0.05,,---,0.25,VWS V14.01,2013-05-20 14:31:00,
2013-05-20 10:36:00,54.7,52.4,29.53,WNW,292,0.0,0.0,92,0.05,,---,0.25,VWS V14.01,2013-05-20 14:36:00,
2013-05-20 10:41:00,54.7,52.4,29.56,North,0,0.0,0.0,92,0.05,,---,0.25,VWS V14.01,2013-05-20 14:41:00,
2013-05-20 10:47:00,54.7,52.4,29.56,North,0,0.0,0.0,92,0.05,,---,0.25,VWS V14.01,2013-05-20 14:47:00,
2013-05-20 10:52:00,54.9,52.9,29.56,North,0,0.0,0.0,93,0.05,,---,0.25,VWS V14.01,2013-05-20 14:52:00,
2013-05-20 10:58:00,55.0,53.1,29.53,North,0,0.0,0.0,93,0.05,,---,0.25,VWS V14.01,2013-05-20 14:58:00,
2013-05-20 11:03:00,55.4,53.1,29.53,North,0,0.0,0.0,92,0.00,,---,0.25,VWS V14.01,2013-05-20 15:03:00,
2013-05-20 11:09:00,55.9,54.0,29.53,North,0,0.0,0.0,93,0.00,,---,0.25,VWS V14.01,2013-05-20 15:09:00,
2013-05-20 11:15:00,56.7,54.7,29.53,WNW,292,0.0,0.0,93,0.00,,---,0.25,VWS V14.01,2013-05-20 15:15:00,
2013-05-20 11:20:00,57.0,54.7,29.53,WNW,292,0.0,0.0,92,0.00,,---,0.25,VWS V14.01,2013-05-20 15:20:00,
2013-05-20 11:25:00,57.2,54.6,29.53,WNW,292,0.0,0.0,91,0.00,,---,0.25,VWS V14.01,2013-05-20 15:25:00,
2013-05-20 11:31:00,57.6,54.7,29.53,WNW,292,0.0,0.0,90,0.00,,---,0.25,VWS V14.01,2013-05-20 15:31:00,
2013-05-20 11:36:00,57.9,54.7,29.53,NNW,338,0.0,0.0,89,0.00,,---,0.25,VWS V14.01,2013-05-20 15:36:00,
2013-05-20 11:41:00,57.7,54.5,29.53,NNW,338,0.0,0.0,89,0.00,,---,0.25,VWS V14.01,2013-05-20 15:41:00,
2013-05-20 11:46:00,57.7,53.9,29.53,NNW,338,0.0,0.0,87,0.00,,---,0.25,VWS V14.01,2013-05-20 15:46:00,
2013-05-20 11:51:00,57.7,53.9,29.53,NNW,338,0.0,0.0,87,0.00,,---,0.25,VWS V14.01,2013-05-20 15:51:00,
2013-05-20 11:57:00,57.9,53.8,29.50,North,0,0.0,0.0,86,0.00,,---,0.25,VWS V14.01,2013-05-20 15:57:00,
2013-05-20 12:02:00,58.1,54.3,29.50,North,0,0.0,0.0,87,0.00,,---,0.25,VWS V14.01,2013-05-20 16:02:00,
2013-05-20 12:07:00,58.3,54.1,29.50,North,0,0.0,0.0,86,0.00,,---,0.25,VWS V14.01,2013-05-20 16:07:00,
2013-05-20 12:13:00,59.4,55.5,29.50,West,270,0.0,0.0,87,0.00,,---,0.25,VWS V14.01,2013-05-20 16:13:00,
2013-05-20 12:18:00,60.1,56.2,29.50,ENE,68,0.0,2.0,87,0.00,,---,0.25,VWS V14.01,2013-05-20 16:18:00,
2013-05-20 12:23:00,60.8,56.3,29.50,East,90,2.0,2.5,85,0.00,,---,0.25,VWS V14.01,2013-05-20 16:23:00,
2013-05-20 12:28:00,61.7,57.5,29.50,ENE,68,0.0,0.0,86,0.00,,---,0.25,VWS V14.01,2013-05-20 16:28:00,
2013-05-20 12:34:00,62.4,57.5,29.50,North,0,0.0,0.0,84,0.00,,---,0.25,VWS V14.01,2013-05-20 16:34:00,
2013-05-20 12:39:00,62.8,57.5,29.47,WSW,248,0.0,0.0,83,0.00,,---,0.25,VWS V14.01,2013-05-20 16:39:00,
2013-05-20 12:44:00,63.1,57.9,29.47,WSW,248,2.0,3.1,83,0.00,,---,0.25,VWS V14.01,2013-05-20 16:44:00,
2013-05-20 12:49:00,63.5,57.9,29.47,South,180,1.6,3.4,82,0.00,,---,0.25,VWS V14.01,2013-05-20 16:49:00,
2013-05-20 12:54:00,63.9,58.3,29.47,West,270,1.6,2.7,82,0.00,,---,0.25,VWS V14.01,2013-05-20 16:54:00,
2013-05-20 13:00:00,64.4,57.8,29.47,South,180,1.3,2.0,79,0.00,,---,0.25,VWS V14.01,2013-05-20 17:00:00,
2013-05-20 13:05:00,65.5,59.5,29.47,NNE,22,1.1,2.0,81,0.00,,---,0.25,VWS V14.01,2013-05-20 17:05:00,
2013-05-20 13:10:00,66.0,60.0,29.47,ENE,68,2.5,2.5,81,0.04,,---,0.29,VWS V14.01,2013-05-20 17:10:00,
2013-05-20 13:16:00,66.6,59.8,29.47,South,180,1.3,1.6,79,0.04,,---,0.29,VWS V14.01,2013-05-20 17:16:00,
2013-05-20 13:22:00,67.5,60.7,29.47,ENE,68,1.3,2.2,79,0.04,,---,0.29,VWS V14.01,2013-05-20 17:22:00,
2013-05-20 13:28:00,68.0,60.5,29.47,ESE,112,1.3,2.5,77,0.04,,---,0.29,VWS V14.01,2013-05-20 17:28:00,
2013-05-20 13:33:00,68.4,60.1,29.47,NE,45,2.0,2.7,75,0.04,,---,0.29,VWS V14.01,2013-05-20 17:33:00,
2013-05-20 13:39:00,69.8,61.5,29.47,NE,45,3.6,3.6,75,0.04,,---,0.29,VWS V14.01,2013-05-20 17:39:00,
2013-05-20 13:44:00,70.9,61.8,29.47,NNE,22,1.3,1.3,73,0.04,,---,0.29,VWS V14.01,2013-05-20 17:44:00,
2013-05-20 13:49:00,72.0,62.8,29.47,WNW,292,2.9,2.9,73,0.04,,---,0.29,VWS V14.01,2013-05-20 17:49:00,
2013-05-20 13:54:00,72.3,61.2,29.47,NE,45,2.9,3.1,68,0.04,,---,0.29,VWS V14.01,2013-05-20 17:54:00,
2013-05-20 13:59:00,73.4,61.4,29.47,NE,45,3.6,4.9,66,0.04,,---,0.29,VWS V14.01,2013-05-20 17:59:00,
2013-05-20 14:05:00,74.3,61.8,29.47,NNE,22,1.3,3.8,65,0.04,,---,0.29,VWS V14.01,2013-05-20 18:05:00,
2013-05-20 14:10:00,74.5,59.7,29.47,SSE,158,0.9,4.3,60,0.00,,---,0.29,VWS V14.01,2013-05-20 18:10:00,
2013-05-20 14:15:00,75.0,60.2,29.47,West,270,2.7,3.4,60,0.00,,---,0.29,VWS V14.01,2013-05-20 18:15:00,
2013-05-20 14:20:00,75.2,60.4,29.47,SSE,158,2.5,5.4,60,0.00,,---,0.29,VWS V14.01,2013-05-20 18:20:00,
2013-05-20 14:25:00,75.0,59.3,29.44,ESE,112,2.7,2.7,58,0.00,,---,0.29,VWS V14.01,2013-05-20 18:25:00,
2013-05-20 14:31:00,74.5,56.2,29.44,North,0,3.1,3.1,53,0.00,,---,0.29,VWS V14.01,2013-05-20 18:31:00,
2013-05-20 14:36:00,74.7,57.9,29.44,WSW,248,3.4,3.6,56,0.00,,---,0.29,VWS V14.01,2013-05-20 18:36:00,
2013-05-20 14:42:00,74.7,56.9,29.44,WSW,248,1.1,2.0,54,0.00,,---,0.29,VWS V14.01,2013-05-20 18:42:00,
2013-05-20 14:47:00,74.7,54.2,29.44,NNE,22,2.0,3.8,49,0.00,,---,0.29,VWS V14.01,2013-05-20 18:47:00,
2013-05-20 14:52:00,75.0,56.2,29.44,NNE,22,4.9,4.9,52,0.00,,---,0.29,VWS V14.01,2013-05-20 18:52:00,
2013-05-20 14:57:00,74.5,54.1,29.44,ESE,112,2.0,6.5,49,0.00,,---,0.29,VWS V14.01,2013-05-20 18:57:00,
2013-05-20 15:02:00,74.1,54.9,29.44,WSW,248,1.1,3.4,51,0.00,,---,0.29,VWS V14.01,2013-05-20 19:02:00,
2013-05-20 15:07:00,73.9,55.2,29.44,ENE,68,1.3,1.3,52,0.00,,---,0.29,VWS V14.01,2013-05-20 19:07:00,
2013-05-20 15:13:00,73.8,56.1,29.44,West,270,2.2,5.4,54,0.00,,---,0.29,VWS V14.01,2013-05-20 19:13:00,
2013-05-20 15:18:00,73.4,54.2,29.44,SW,225,1.3,2.0,51,0.00,,---,0.29,VWS V14.01,2013-05-20 19:18:00,
2013-05-20 15:23:00,73.4,55.8,29.44,ESE,112,2.0,3.4,54,0.00,,---,0.29,VWS V14.01,2013-05-20 19:23:00,
2013-05-20 15:28:00,73.8,56.1,29.44,East,90,2.5,3.6,54,0.00,,---,0.29,VWS V14.01,2013-05-20 19:28:00,
2013-05-20 15:33:00,74.3,56.1,29.44,NNE,22,1.1,1.6,53,0.00,,---,0.29,VWS V14.01,2013-05-20 19:33:00,
2013-05-20 15:39:00,75.6,55.6,29.44,WNW,292,2.2,2.2,50,0.00,,---,0.29,VWS V14.01,2013-05-20 19:39:00,
2013-05-20 15:44:00,76.1,56.7,29.44,WSW,248,0.9,2.2,51,0.00,,---,0.29,VWS V14.01,2013-05-20 19:44:00,
2013-05-20 15:49:00,76.3,54.6,29.44,SW,225,3.8,5.4,47,0.00,,---,0.29,VWS V14.01,2013-05-20 19:49:00,
2013-05-20 15:54:00,76.6,54.9,29.44,NNE,22,1.1,2.2,47,0.00,,---,0.29,VWS V14.01,2013-05-20 19:54:00,
2013-05-20 16:00:00,76.8,54.5,29.44,NNE,22,2.0,2.0,46,0.00,,---,0.29,VWS V14.01,2013-05-20 20:00:00,
2013-05-20 16:04:00,77.2,54.2,29.44,ENE,68,1.1,1.1,45,0.00,,---,0.29,VWS V14.01,2013-05-20 20:04:00,
2013-05-20 16:09:00,77.5,54.5,29.44,NNE,22,2.9,2.9,45,0.00,,---,0.29,VWS V14.01,2013-05-20 20:09:00,
2013-05-20 16:14:00,77.5,53.9,29.44,NNE,22,2.9,3.4,44,0.00,,---,0.29,VWS V14.01,2013-05-20 20:14:00,
2013-05-20 16:19:00,77.5,53.9,29.44,ESE,112,2.0,2.5,44,0.00,,---,0.29,VWS V14.01,2013-05-20 20:19:00,
2013-05-20 16:24:00,77.7,53.5,29.44,SSW,202,1.6,2.2,43,0.00,,---,0.29,VWS V14.01,2013-05-20 20:24:00,
2013-05-20 16:30:00,77.4,52.5,29.44,ENE,68,2.0,2.7,42,0.00,,---,0.29,VWS V14.01,2013-05-20 20:30:00,
2013-05-20 16:35:00,77.4,52.5,29.44,NNE,22,0.9,2.5,42,0.00,,---,0.29,VWS V14.01,2013-05-20 20:35:00,
2013-05-20 16:41:00,77.0,50.9,29.44,SSW,202,3.4,7.4,40,0.00,,---,0.29,VWS V14.01,2013-05-20 20:41:00,
2013-05-20 16:46:00,76.1,48.7,29.44,North,0,2.0,6.3,38,0.00,,---,0.29,VWS V14.01,2013-05-20 20:46:00,
2013-05-20 16:51:00,76.3,49.5,29.44,NE,45,1.3,3.8,39,0.00,,---,0.29,VWS V14.01,2013-05-20 20:51:00,
2013-05-20 16:57:00,76.1,50.0,29.44,ESE,112,1.1,3.4,40,0.00,,---,0.29,VWS V14.01,2013-05-20 20:57:00,
2013-05-20 17:02:00,76.1,50.0,29.44,East,90,2.5,7.2,40,0.00,,---,0.29,VWS V14.01,2013-05-20 21:02:00,
2013-05-20 17:07:00,75.7,50.4,29.44,NNE,22,2.2,3.4,41,0.00,,---,0.29,VWS V14.01,2013-05-20 21:07:00,
2013-05-20 17:12:00,75.2,49.2,29.44,NW,315,2.5,6.0,40,0.00,,---,0.29,VWS V14.01,2013-05-20 21:12:00,
2013-05-20 17:17:00,74.8,49.6,29.44,WSW,248,2.0,2.7,41,0.00,,---,0.29,VWS V14.01,2013-05-20 21:17:00,
2013-05-20 17:22:00,74.7,50.1,29.44,NNE,22,2.2,3.1,42,0.00,,---,0.29,VWS V14.01,2013-05-20 21:22:00,
2013-05-20 17:28:00,74.5,50.5,29.44,NNW,338,0.0,0.0,43,0.00,,---,0.29,VWS V14.01,2013-05-20 21:28:00,
2013-05-20 17:32:00,74.1,50.2,29.44,North,0,0.9,2.5,43,0.00,,---,0.29,VWS V14.01,2013-05-20 21:32:00,
2013-05-20 17:37:00,73.4,48.9,29.44,NE,45,1.1,2.2,42,0.00,,---,0.29,VWS V14.01,2013-05-20 21:37:00,
2013-05-20 17:42:00,73.2,49.4,29.44,SE,135,1.6,1.6,43,0.00,,---,0.29,VWS V14.01,2013-05-20 21:42:00,
2013-05-20 17:47:00,73.0,49.9,29.44,SSE,158,3.6,3.6,44,0.00,,---,0.29,VWS V14.01,2013-05-20 21:47:00,
2013-05-20 17:52:00,73.2,50.0,29.44,NNW,338,1.1,2.5,44,0.00,,---,0.29,VWS V14.01,2013-05-20 21:52:00,
2013-05-20 17:57:00,73.2,49.4,29.44,ENE,68,1.1,3.1,43,0.00,,---,0.29,VWS V14.01,2013-05-20 21:57:00,
2013-05-20 18:03:00,73.6,49.7,29.44,NNW,338,0.0,2.2,43,0.00,,---,0.29,VWS V14.01,2013-05-20 22:03:00,
2013-05-20 18:08:00,73.6,49.7,29.44,SW,225,0.0,3.6,43,0.00,,---,0.29,VWS V14.01,2013-05-20 22:08:00,
2013-05-20 18:13:00,73.8,49.9,29.44,West,270,6.5,6.5,43,0.00,,---,0.29,VWS V14.01,2013-05-20 22:13:00,
2013-05-20 18:18:00,73.9,50.7,29.44,SSW,202,2.5,2.5,44,0.00,,---,0.29,VWS V14.01,2013-05-20 22:18:00,
2013-05-20 18:23:00,73.9,50.7,29.44,South,180,2.9,2.9,44,0.00,,---,0.29,VWS V14.01,2013-05-20 22:23:00,
2013-05-20 18:28:00,73.9,50.7,29.44,East,90,0.0,1.6,44,0.00,,---,0.29,VWS V14.01,2013-05-20 22:28:00,
2013-05-20 18:33:00,73.8,50.5,29.44,NW,315,1.3,1.6,44,0.00,,---,0.29,VWS V14.01,2013-05-20 22:33:00,
2013-05-20 18:38:00,73.4,48.9,29.44,SSE,158,3.1,3.8,42,0.00,,---,0.29,VWS V14.01,2013-05-20 22:38:00,
2013-05-20 18:44:00,73.4,50.2,29.44,ENE,68,2.5,2.5,44,0.00,,---,0.29,VWS V14.01,2013-05-20 22:44:00,
2013-05-20 18:49:00,72.7,50.1,29.44,NE,45,0.0,0.0,45,0.00,,---,0.29,VWS V14.01,2013-05-20 22:49:00,
2013-05-20 18:55:00,72.1,49.7,29.44,NE,45,0.0,0.0,45,0.00,,---,0.29,VWS V14.01,2013-05-20 22:55:00,
2013-05-20 19:00:00,71.6,49.8,29.44,ENE,68,1.6,2.7,46,0.00,,---,0.29,VWS V14.01,2013-05-20 23:00:00,
2013-05-20 19:05:00,70.7,49.5,29.44,South,180,1.6,2.5,47,0.00,,---,0.29,VWS V14.01,2013-05-20 23:05:00,
2013-05-20 19:10:00,70.3,49.7,29.44,WSW,248,1.6,1.6,48,0.00,,---,0.29,VWS V14.01,2013-05-20 23:10:00,
2013-05-20 19:16:00,69.8,49.8,29.44,NE,45,0.9,3.1,49,0.00,,---,0.29,VWS V14.01,2013-05-20 23:16:00,
2013-05-20 19:21:00,69.3,49.3,29.44,East,90,0.9,0.9,49,0.00,,---,0.29,VWS V14.01,2013-05-20 23:21:00,
2013-05-20 19:26:00,68.7,49.3,29.47,WNW,292,0.0,0.9,50,0.00,,---,0.29,VWS V14.01,2013-05-20 23:26:00,
2013-05-20 19:32:00,68.4,49.5,29.47,NNE,22,0.0,1.3,51,0.00,,---,0.29,VWS V14.01,2013-05-20 23:32:00,
2013-05-20 19:37:00,68.0,49.2,29.47,NNE,22,0.0,0.0,51,0.00,,---,0.29,VWS V14.01,2013-05-20 23:37:00,
2013-05-20 19:42:00,67.6,50.4,29.47,West,270,0.0,1.3,54,0.00,,---,0.29,VWS V14.01,2013-05-20 23:42:00,
2013-05-20 19:48:00,67.1,50.9,29.47,West,270,0.0,0.0,56,0.00,,---,0.29,VWS V14.01,2013-05-20 23:48:00,
2013-05-20 19:54:00,66.2,51.5,29.47,West,270,1.3,2.0,59,0.00,,---,0.29,VWS V14.01,2013-05-20 23:54:00,
2013-05-20 20:00:00,65.8,51.6,29.47,SW,225,2.5,2.7,60,0.00,,---,0.29,VWS V14.01,2013-05-21 00:00:00,
2013-05-20 20:05:00,65.8,51.6,29.47,South,180,1.3,1.6,60,0.00,,---,0.29,VWS V14.01,2013-05-21 00:05:00,
2013-05-20 20:11:00,65.3,52.0,29.50,SSW,202,1.1,1.3,62,0.00,,---,0.29,VWS V14.01,2013-05-21 00:11:00,
2013-05-20 20:16:00,64.8,52.3,29.50,SSW,202,1.3,1.3,64,0.00,,---,0.29,VWS V14.01,2013-05-21 00:16:00,
2013-05-20 20:22:00,64.4,52.4,29.50,SSW,202,1.6,2.0,65,0.00,,---,0.29,VWS V14.01,2013-05-21 00:22:00,
2013-05-20 20:26:00,64.0,52.5,29.47,SSW,202,2.2,2.5,66,0.00,,---,0.29,VWS V14.01,2013-05-21 00:26:00,
2013-05-20 20:31:00,63.7,52.1,29.47,SSW,202,1.3,2.5,66,0.00,,---,0.29,VWS V14.01,2013-05-21 00:31:00,
2013-05-20 20:37:00,63.3,52.6,29.47,SSW,202,2.2,2.5,68,0.00,,---,0.29,VWS V14.01,2013-05-21 00:37:00,
2013-05-20 20:42:00,62.8,52.5,29.50,SSW,202,1.1,2.0,69,0.00,,---,0.29,VWS V14.01,2013-05-21 00:42:00,
2013-05-20 20:48:00,62.4,52.5,29.50,West,270,2.0,2.0,70,0.00,,---,0.29,VWS V14.01,2013-05-21 00:48:00,
2013-05-20 20:53:00,62.2,52.7,29.50,West,270,1.3,1.6,71,0.00,,---,0.29,VWS V14.01,2013-05-21 00:53:00,
2013-05-20 20:58:00,61.7,52.2,29.50,West,270,1.3,1.3,71,0.00,,---,0.29,VWS V14.01,2013-05-21 00:58:00,
2013-05-20 21:03:00,61.3,52.2,29.50,West,270,0.0,0.0,72,0.00,,---,0.29,VWS V14.01,2013-05-21 01:03:00,
2013-05-20 21:08:00,61.2,52.1,29.50,West,270,0.0,0.0,72,0.00,,---,0.29,VWS V14.01,2013-05-21 01:08:00,
2013-05-20 21:12:00,61.0,52.3,29.50,West,270,0.0,0.0,73,0.00,,---,0.29,VWS V14.01,2013-05-21 01:12:00,
2013-05-20 21:18:00,60.6,52.3,29.50,West,270,1.3,1.6,74,0.00,,---,0.29,VWS V14.01,2013-05-21 01:18:00,
2013-05-20 21:22:00,60.4,52.1,29.50,West,270,0.0,0.0,74,0.00,,---,0.29,VWS V14.01,2013-05-21 01:22:00,
2013-05-20 21:28:00,60.1,51.8,29.50,West,270,0.0,0.0,74,0.00,,---,0.29,VWS V14.01,2013-05-21 01:28:00,
2013-05-20 21:32:00,59.7,51.8,29.50,West,270,0.0,0.0,75,0.00,,---,0.29,VWS V14.01,2013-05-21 01:32:00,
2013-05-20 21:38:00,59.5,52.0,29.50,West,270,0.0,0.0,76,0.00,,---,0.29,VWS V14.01,2013-05-21 01:38:00,
2013-05-20 21:43:00,59.4,51.8,29.50,West,270,0.0,0.0,76,0.00,,---,0.29,VWS V14.01,2013-05-21 01:43:00,
2013-05-20 21:48:00,59.0,51.8,29.50,West,270,0.0,0.0,77,0.00,,---,0.29,VWS V14.01,2013-05-21 01:48:00,
2013-05-20 21:54:00,58.8,51.6,29.50,West,270,0.0,0.0,77,0.00,,---,0.29,VWS V14.01,2013-05-21 01:54:00,
2013-05-20 21:59:00,58.5,51.6,29.50,West,270,0.0,0.0,78,0.00,,---,0.29,VWS V14.01,2013-05-21 01:59:00,
2013-05-20 22:03:00,58.1,51.3,29.50,West,270,0.0,0.0,78,0.00,,---,0.29,VWS V14.01,2013-05-21 02:03:00,
2013-05-20 22:08:00,58.1,51.3,29.50,West,270,0.0,0.0,78,0.00,,---,0.29,VWS V14.01,2013-05-21 02:08:00,
2013-05-20 22:13:00,57.7,51.3,29.50,West,270,0.0,0.0,79,0.00,,---,0.29,VWS V14.01,2013-05-21 02:13:00,
2013-05-20 22:18:00,57.6,51.1,29.50,West,270,0.0,0.0,79,0.00,,---,0.29,VWS V14.01,2013-05-21 02:18:00,
2013-05-20 22:24:00,57.4,50.9,29.50,West,270,0.0,0.0,79,0.00,,---,0.29,VWS V14.01,2013-05-21 02:24:00,
2013-05-20 22:28:00,57.2,51.1,29.50,West,270,0.0,0.0,80,0.00,,---,0.29,VWS V14.01,2013-05-21 02:28:00,
2013-05-20 22:34:00,56.8,50.7,29.50,West,270,1.3,1.6,80,0.00,,---,0.29,VWS V14.01,2013-05-21 02:34:00,
2013-05-20 22:39:00,56.8,50.7,29.50,West,270,2.0,2.2,80,0.00,,---,0.29,VWS V14.01,2013-05-21 02:39:00,
2013-05-20 22:44:00,56.5,50.7,29.50,West,270,2.2,2.2,81,0.00,,---,0.29,VWS V14.01,2013-05-21 02:44:00,
2013-05-20 22:48:00,56.3,50.5,29.50,West,270,1.1,1.1,81,0.00,,---,0.29,VWS V14.01,2013-05-21 02:48:00,
2013-05-20 22:54:00,56.1,50.4,29.50,West,270,0.0,0.0,81,0.00,,---,0.29,VWS V14.01,2013-05-21 02:54:00,
2013-05-20 22:58:00,55.8,50.0,29.50,West,270,0.0,0.0,81,0.00,,---,0.29,VWS V14.01,2013-05-21 02:58:00,
2013-05-20 23:03:00,55.6,49.8,29.50,West,270,1.1,1.1,81,0.00,,---,0.29,VWS V14.01,2013-05-21 03:03:00,
2013-05-20 23:08:00,55.4,49.7,29.50,West,270,1.1,1.1,81,0.00,,---,0.29,VWS V14.01,2013-05-21 03:08:00,
2013-05-20 23:14:00,55.0,49.3,29.50,West,270,0.0,0.0,81,0.00,,---,0.29,VWS V14.01,2013-05-21 03:14:00,
2013-05-20 23:19:00,54.9,49.5,29.50,West,270,0.0,0.0,82,0.00,,---,0.29,VWS V14.01,2013-05-21 03:19:00,
2013-05-20 23:25:00,54.7,49.3,29.50,West,270,1.1,1.3,82,0.00,,---,0.29,VWS V14.01,2013-05-21 03:25:00,
2013-05-20 23:30:00,54.5,49.1,29.50,West,270,0.0,0.0,82,0.00,,---,0.29,VWS V14.01,2013-05-21 03:30:00,
2013-05-20 23:36:00,54.1,48.8,29.50,West,270,0.0,0.0,82,0.00,,---,0.29,VWS V14.01,2013-05-21 03:36:00,
2013-05-20 23:40:00,54.1,49.1,29.50,West,270,0.0,0.0,83,0.00,,---,0.29,VWS V14.01,2013-05-21 03:40:00,
2013-05-20 23:46:00,54.0,48.9,29.50,West,270,0.0,0.0,83,0.00,,---,0.29,VWS V14.01,2013-05-21 03:46:00,
2013-05-20 23:51:00,53.8,48.8,29.50,West,270,0.0,0.0,83,0.00,,---,0.29,VWS V14.01,2013-05-21 03:51:00,
2013-05-20 23:56:00,53.6,48.6,29.50,West,270,0.0,0.0,83,0.00,,---,0.29,VWS V14.01,2013-05-21 03:56:00,